Terminal Aerodrome Forecast
Issued by NWS

Home | Current Version | Previous Version | Text Only | Print | Product List | Glossary On
Versions: 1 2 3 4 5 6 7 8 9 10 11 12 13
393
FTUS42 KMLB 141726
TAFFPR
TAF
KFPR 141726Z 1418/1518 08012KT P6SM BKN035
     FM150100 10008KT P6SM OVC040
     FM151200 11008KT P6SM OVC050
     FM151500 12014G20KT P6SM VCSH OVC050=

USA.gov is the U.S. government's official web portal to all federal, state and local government web resources and services.